sensor_id;sensor_type;location;lat;lon;timestamp;P1;durP1;ratioP1;P2;durP2;ratioP2
38085;SDS011;23896;50.678;10.924;2022-11-20T10:25:20;5.82;;;4.82;;
38085;SDS011;23896;50.678;10.924;2022-11-20T10:30:15;5.95;;;4.43;;
38085;SDS011;23896;50.678;10.924;2022-11-20T10:32:59;7.43;;;5.15;;
38085;SDS011;23896;50.678;10.924;2022-11-20T10:38:30;6.68;;;4.50;;
38085;SDS011;23896;50.678;10.924;2022-11-20T10:41:03;5.55;;;4.95;;
38085;SDS011;23896;50.678;10.924;2022-11-20T10:44:10;5.10;;;4.50;;
38085;SDS011;23896;50.678;10.924;2022-11-20T10:46:40;5.37;;;4.87;;
38085;SDS011;23896;50.678;10.924;2022-11-20T10:49:18;6.13;;;4.28;;
38085;SDS011;23896;50.678;10.924;2022-11-20T10:52:09;6.28;;;4.82;;
38085;SDS011;23896;50.678;10.924;2022-11-20T10:57:31;5.93;;;4.90;;
38085;SDS011;23896;50.678;10.924;2022-11-20T11:00:11;6.22;;;4.65;;
38085;SDS011;23896;50.678;10.924;2022-11-20T11:02:52;6.70;;;5.50;;
38085;SDS011;23896;50.678;10.924;2022-11-20T11:05:41;6.78;;;4.97;;
38085;SDS011;23896;50.678;10.924;2022-11-20T11:08:18;7.13;;;5.60;;
38085;SDS011;23896;50.678;10.924;2022-11-20T11:15:53;7.40;;;5.40;;
38085;SDS011;23896;50.678;10.924;2022-11-20T11:20:55;7.15;;;5.20;;
38085;SDS011;23896;50.678;10.924;2022-11-20T11:23:32;6.38;;;4.47;;
38085;SDS011;23896;50.678;10.924;2022-11-20T11:26:03;6.07;;;4.93;;
38085;SDS011;23896;50.678;10.924;2022-11-20T11:28:34;6.15;;;4.50;;
38085;SDS011;23896;50.678;10.924;2022-11-20T11:31:02;5.28;;;4.70;;
38085;SDS011;23896;50.678;10.924;2022-11-20T11:33:30;5.03;;;4.15;;
38085;SDS011;23896;50.678;10.924;2022-11-20T11:36:03;6.68;;;5.07;;
38085;SDS011;23896;50.678;10.924;2022-11-20T11:38:41;6.60;;;5.32;;
38085;SDS011;23896;50.678;10.924;2022-11-20T11:41:09;4.88;;;4.38;;
38085;SDS011;23896;50.678;10.924;2022-11-20T11:43:47;5.57;;;4.65;;
38085;SDS011;23896;50.678;10.924;2022-11-20T11:52:04;6.38;;;4.95;;
38085;SDS011;23896;50.678;10.924;2022-11-20T11:54:38;6.60;;;4.93;;
38085;SDS011;23896;50.678;10.924;2022-11-20T12:00:13;10.30;;;6.00;;
38085;SDS011;23896;50.678;10.924;2022-11-20T12:05:36;7.45;;;5.70;;
38085;SDS011;23896;50.678;10.924;2022-11-20T12:13:58;5.53;;;4.70;;
38085;SDS011;23896;50.678;10.924;2022-11-20T12:16:28;6.55;;;4.80;;
38085;SDS011;23896;50.678;10.924;2022-11-20T12:18:57;6.20;;;4.28;;
38085;SDS011;23896;50.678;10.924;2022-11-20T12:34:52;6.22;;;3.90;;
38085;SDS011;23896;50.678;10.924;2022-11-20T13:18:07;7.20;;;4.95;;
38085;SDS011;23896;50.678;10.924;2022-11-20T13:56:05;9.25;;;5.93;;
38085;SDS011;23896;50.678;10.924;2022-11-20T14:08:02;5.65;;;4.70;;
38085;SDS011;23896;50.678;10.924;2022-11-20T14:13:27;7.85;;;5.45;;
38085;SDS011;23896;50.678;10.924;2022-11-20T14:15:57;7.75;;;5.07;;
38085;SDS011;23896;50.678;10.924;2022-11-20T14:18:25;7.93;;;5.35;;
38085;SDS011;23896;50.678;10.924;2022-11-20T14:20:53;6.05;;;4.45;;
38085;SDS011;23896;50.678;10.924;2022-11-20T14:23:25;8.07;;;5.20;;
38085;SDS011;23896;50.678;10.924;2022-11-20T14:25:51;6.38;;;4.90;;
38085;SDS011;23896;50.678;10.924;2022-11-20T14:28:36;6.95;;;5.15;;
38085;SDS011;23896;50.678;10.924;2022-11-20T14:31:29;9.73;;;5.10;;
38085;SDS011;23896;50.678;10.924;2022-11-20T14:34:02;7.13;;;5.22;;
38085;SDS011;23896;50.678;10.924;2022-11-20T14:37:32;6.68;;;4.88;;
38085;SDS011;23896;50.678;10.924;2022-11-20T14:43:24;10.50;;;5.80;;
38085;SDS011;23896;50.678;10.924;2022-11-20T14:49:53;9.05;;;5.40;;
38085;SDS011;23896;50.678;10.924;2022-11-20T15:01:25;7.60;;;5.43;;
38085;SDS011;23896;50.678;10.924;2022-11-20T15:04:06;7.65;;;4.93;;
38085;SDS011;23896;50.678;10.924;2022-11-20T15:06:37;9.38;;;4.68;;
38085;SDS011;23896;50.678;10.924;2022-11-20T15:09:14;8.75;;;5.68;;
38085;SDS011;23896;50.678;10.924;2022-11-20T15:11:50;8.43;;;5.22;;
38085;SDS011;23896;50.678;10.924;2022-11-20T15:14:19;9.25;;;5.45;;
38085;SDS011;23896;50.678;10.924;2022-11-20T15:16:46;9.20;;;6.30;;
38085;SDS011;23896;50.678;10.924;2022-11-20T15:19:25;8.65;;;6.00;;
38085;SDS011;23896;50.678;10.924;2022-11-20T15:21:52;8.80;;;6.32;;
38085;SDS011;23896;50.678;10.924;2022-11-20T15:24:24;9.57;;;6.28;;
38085;SDS011;23896;50.678;10.924;2022-11-20T15:26:51;9.70;;;6.15;;
38085;SDS011;23896;50.678;10.924;2022-11-20T15:29:19;12.60;;;6.30;;
38085;SDS011;23896;50.678;10.924;2022-11-20T15:31:46;10.75;;;6.82;;
38085;SDS011;23896;50.678;10.924;2022-11-20T15:34:16;9.38;;;6.20;;
38085;SDS011;23896;50.678;10.924;2022-11-20T15:36:45;9.43;;;6.65;;
38085;SDS011;23896;50.678;10.924;2022-11-20T15:39:11;9.40;;;6.93;;
38085;SDS011;23896;50.678;10.924;2022-11-20T15:41:38;12.00;;;8.15;;
38085;SDS011;23896;50.678;10.924;2022-11-20T15:44:07;12.80;;;8.48;;
38085;SDS011;23896;50.678;10.924;2022-11-20T15:46:37;9.82;;;7.38;;
38085;SDS011;23896;50.678;10.924;2022-11-20T15:49:08;10.82;;;7.68;;
38085;SDS011;23896;50.678;10.924;2022-11-20T15:51:41;9.73;;;6.73;;
38085;SDS011;23896;50.678;10.924;2022-11-20T15:54:15;10.85;;;6.88;;
38085;SDS011;23896;50.678;10.924;2022-11-20T15:56:43;9.55;;;6.10;;
38085;SDS011;23896;50.678;10.924;2022-11-20T15:59:13;10.38;;;6.97;;
38085;SDS011;23896;50.678;10.924;2022-11-20T16:01:49;10.63;;;7.18;;
38085;SDS011;23896;50.678;10.924;2022-11-20T16:04:16;8.68;;;6.70;;
38085;SDS011;23896;50.678;10.924;2022-11-20T16:06:43;11.98;;;8.00;;
38085;SDS011;23896;50.678;10.924;2022-11-20T16:09:12;11.20;;;7.85;;
38085;SDS011;23896;50.678;10.924;2022-11-20T16:11:39;11.57;;;7.70;;
38085;SDS011;23896;50.678;10.924;2022-11-20T16:14:12;13.65;;;9.43;;
38085;SDS011;23896;50.678;10.924;2022-11-20T16:16:57;18.75;;;11.23;;
38085;SDS011;23896;50.678;10.924;2022-11-20T16:19:26;16.17;;;10.23;;
38085;SDS011;23896;50.678;10.924;2022-11-20T23:30:40;0.50;;;0.50;;
38085;SDS011;23896;50.678;10.924;2022-11-20T23:33:06;1.55;;;0.50;;
38085;SDS011;23896;50.678;10.924;2022-11-20T23:35:36;0.40;;;0.40;;
38085;SDS011;23896;50.678;10.924;2022-11-20T23:38:04;0.50;;;0.50;;
38085;SDS011;23896;50.678;10.924;2022-11-20T23:40:30;0.68;;;0.50;;
38085;SDS011;23896;50.678;10.924;2022-11-20T23:43:00;0.40;;;0.40;;
38085;SDS011;23896;50.678;10.924;2022-11-20T23:48:09;0.50;;;0.50;;
38085;SDS011;23896;50.678;10.924;2022-11-20T23:50:36;0.50;;;0.50;;
38085;SDS011;23896;50.678;10.924;2022-11-20T23:53:02;0.60;;;0.60;;
38085;SDS011;23896;50.678;10.924;2022-11-20T23:55:34;0.60;;;0.60;;
38085;SDS011;23896;50.678;10.924;2022-11-20T23:58:02;0.80;;;0.80;;
